createdAt,value
2018-01-06T00:00:48.716Z,69.80
2018-01-06T00:03:16.294Z,70.10
2018-01-06T00:05:44.219Z,70.00
2018-01-06T00:08:11.829Z,70.10
2018-01-06T00:10:39.410Z,70.40
2018-01-06T00:13:06.999Z,70.40
2018-01-06T00:15:34.569Z,70.90
2018-01-06T00:18:02.167Z,71.00
2018-01-06T00:20:29.722Z,71.10
2018-01-06T00:22:57.319Z,70.80
2018-01-06T00:25:24.886Z,70.90
2018-01-06T00:27:52.493Z,71.00
2018-01-06T00:30:20.012Z,70.80
2018-01-06T00:32:47.610Z,70.70
2018-01-06T00:35:15.178Z,70.50
2018-01-06T00:37:42.788Z,70.50
2018-01-06T00:40:10.324Z,70.30
2018-01-06T00:42:37.882Z,70.30
2018-01-06T00:45:05.469Z,70.00
2018-01-06T00:47:33.063Z,70.30
2018-01-06T00:50:00.623Z,70.20
2018-01-06T00:52:28.138Z,70.00
2018-01-06T00:54:55.729Z,69.90
2018-01-06T00:57:23.239Z,69.90
2018-01-06T00:59:50.788Z,70.30
2018-01-06T01:02:18.345Z,70.20
2018-01-06T01:04:45.893Z,69.60
2018-01-06T01:07:13.416Z,69.40
2018-01-06T01:09:42.648Z,69.80
2018-01-06T01:12:10.184Z,69.70
2018-01-06T01:14:37.752Z,70.00
2018-01-06T01:17:06.241Z,69.70
2018-01-06T01:19:33.756Z,69.90
2018-01-06T01:22:01.301Z,69.60
2018-01-06T01:24:28.803Z,69.30
2018-01-06T01:26:56.402Z,69.50
2018-01-06T01:29:23.905Z,69.30
2018-01-06T01:31:51.448Z,69.40
2018-01-06T01:34:18.996Z,69.60
2018-01-06T01:36:46.534Z,69.80
2018-01-06T01:39:14.044Z,69.70
2018-01-06T01:41:41.587Z,69.50
2018-01-06T01:44:09.107Z,69.40
2018-01-06T01:46:37.881Z,69.40
2018-01-06T01:49:05.387Z,69.30
2018-01-06T01:51:33.624Z,69.60
2018-01-06T01:54:01.166Z,69.60
2018-01-06T01:56:28.705Z,69.80
2018-01-06T01:58:56.218Z,69.90
2018-01-06T02:01:23.799Z,69.80
2018-01-06T02:03:51.305Z,69.70
2018-01-06T02:06:18.846Z,69.50
2018-01-06T02:08:46.432Z,68.80
2018-01-06T02:11:13.943Z,69.00
2018-01-06T02:13:42.267Z,70.30
2018-01-06T02:16:09.825Z,69.60
2018-01-06T02:18:37.372Z,69.70
2018-01-06T02:21:04.879Z,70.20
2018-01-06T02:23:32.380Z,69.80
2018-01-06T02:25:59.924Z,70.10
2018-01-06T02:28:28.200Z,70.50
2018-01-06T02:30:55.713Z,69.70
2018-01-06T02:33:23.244Z,69.60
2018-01-06T02:35:50.760Z,70.00
2018-01-06T02:38:18.344Z,69.60
2018-01-06T02:40:45.911Z,69.50
2018-01-06T02:43:14.225Z,69.40
2018-01-06T02:45:41.743Z,69.30
2018-01-06T02:48:10.052Z,70.00
2018-01-06T02:50:37.560Z,69.90
2018-01-06T02:53:05.088Z,69.80
2018-01-06T02:55:32.600Z,70.70
2018-01-06T02:58:00.157Z,69.90
2018-01-06T03:00:27.725Z,69.20
2018-01-06T03:02:55.281Z,70.10
2018-01-06T03:05:22.793Z,70.60
2018-01-06T03:07:50.339Z,69.40
2018-01-06T03:10:17.932Z,69.20
2018-01-06T03:12:45.502Z,69.60
2018-01-06T03:15:13.016Z,69.80
2018-01-06T03:17:40.533Z,69.90
2018-01-06T03:20:08.854Z,69.70
2018-01-06T03:22:36.542Z,69.70
2018-01-06T03:25:04.094Z,69.60
2018-01-06T03:27:32.542Z,69.20
2018-01-06T03:30:00.090Z,69.00
2018-01-06T03:32:27.640Z,69.20
2018-01-06T03:34:55.155Z,69.30
2018-01-06T03:37:22.705Z,69.30
2018-01-06T03:39:50.258Z,69.40
2018-01-06T03:42:17.802Z,69.40
2018-01-06T03:44:45.359Z,69.60
2018-01-06T03:47:12.879Z,69.10
2018-01-06T03:49:40.465Z,69.30
2018-01-06T03:52:08.006Z,69.30
2018-01-06T03:54:36.377Z,69.20
2018-01-06T03:57:04.705Z,69.20
2018-01-06T03:59:32.216Z,69.00
2018-01-06T04:02:00.552Z,69.20
2018-01-06T04:04:28.072Z,69.20
2018-01-06T04:06:55.596Z,69.40
2018-01-06T04:09:23.158Z,68.80
2018-01-06T04:11:50.681Z,68.90
2018-01-06T04:14:18.201Z,69.20
2018-01-06T04:16:46.521Z,69.00
2018-01-06T04:19:14.044Z,69.00
2018-01-06T04:21:41.597Z,68.90
2018-01-06T04:24:09.147Z,68.80
2018-01-06T04:26:36.702Z,69.00
2018-01-06T04:29:05.025Z,69.20
2018-01-06T04:31:32.576Z,69.20
2018-01-06T04:34:00.135Z,69.30
2018-01-06T04:36:27.657Z,69.10
2018-01-06T04:38:55.189Z,68.90
2018-01-06T04:41:22.718Z,69.20
2018-01-06T04:43:50.286Z,69.20
2018-01-06T04:46:17.811Z,69.60
2018-01-06T04:48:45.369Z,69.20
2018-01-06T04:51:13.653Z,69.00
2018-01-06T04:53:41.183Z,69.00
2018-01-06T04:56:08.738Z,68.30
2018-01-06T04:58:36.249Z,68.80
2018-01-06T05:01:03.816Z,69.00
2018-01-06T05:03:31.367Z,69.30
2018-01-06T05:05:58.894Z,69.30
2018-01-06T05:08:26.457Z,69.00
2018-01-06T05:10:53.977Z,68.70
2018-01-06T05:13:21.493Z,69.00
2018-01-06T05:15:49.081Z,68.50
2018-01-06T05:18:16.637Z,68.60
2018-01-06T05:20:44.185Z,68.50
2018-01-06T05:23:11.713Z,69.10
2018-01-06T05:25:39.257Z,69.00
2018-01-06T05:28:06.802Z,69.20
2018-01-06T05:30:34.357Z,69.10
2018-01-06T05:33:02.900Z,69.40
2018-01-06T05:35:30.469Z,69.00
2018-01-06T05:37:57.990Z,68.90
2018-01-06T05:40:25.553Z,68.90
2018-01-06T05:42:53.072Z,68.90
2018-01-06T05:45:20.624Z,68.80
2018-01-06T05:47:48.196Z,68.70
2018-01-06T05:50:15.717Z,68.50
2018-01-06T05:52:43.280Z,68.50
2018-01-06T05:55:10.841Z,68.80
2018-01-06T05:57:38.371Z,68.40
2018-01-06T06:00:06.662Z,68.70
2018-01-06T06:02:34.240Z,68.60
2018-01-06T06:05:01.955Z,68.30
2018-01-06T06:07:29.488Z,68.60
2018-01-06T06:09:57.015Z,68.60
2018-01-06T06:12:24.577Z,68.20
2018-01-06T06:14:52.088Z,68.00
2018-01-06T06:17:19.693Z,68.00
2018-01-06T06:19:47.217Z,68.20
2018-01-06T06:22:14.774Z,68.40
2018-01-06T06:24:42.368Z,68.70
2018-01-06T06:27:09.880Z,68.30
2018-01-06T06:29:37.436Z,68.30
2018-01-06T06:32:04.974Z,68.10
2018-01-06T06:34:32.517Z,67.70
2018-01-06T06:37:00.047Z,67.80
2018-01-06T06:39:27.606Z,67.80
2018-01-06T06:41:55.125Z,67.80
2018-01-06T06:44:22.684Z,67.50
2018-01-06T06:46:50.411Z,68.30
2018-01-06T06:49:17.962Z,67.40
2018-01-06T06:51:45.476Z,68.10
2018-01-06T06:54:13.036Z,68.20
2018-01-06T06:56:40.572Z,68.40
2018-01-06T06:59:08.142Z,68.10
2018-01-06T07:01:35.658Z,67.40
2018-01-06T07:04:03.193Z,67.40
2018-01-06T07:06:31.514Z,68.20
2018-01-06T07:08:59.032Z,68.20
2018-01-06T07:11:28.060Z,68.30
2018-01-06T07:13:55.622Z,68.20
2018-01-06T07:16:23.190Z,67.60
2018-01-06T07:18:50.715Z,68.40
2018-01-06T07:21:18.271Z,67.70
2018-01-06T07:23:45.917Z,68.50
2018-01-06T07:26:14.234Z,69.00
2018-01-06T07:28:41.778Z,68.80
2018-01-06T07:31:09.302Z,68.60
2018-01-06T07:33:36.876Z,68.00
2018-01-06T07:36:04.409Z,67.50
2018-01-06T07:38:31.970Z,67.60
2018-01-06T07:40:59.495Z,67.90
2018-01-06T07:43:27.066Z,68.10
2018-01-06T07:45:54.629Z,68.20
2018-01-06T07:48:22.184Z,67.90
2018-01-06T07:50:49.738Z,68.00
2018-01-06T07:53:17.291Z,67.60
2018-01-06T07:55:44.809Z,68.30
2018-01-06T07:58:12.361Z,68.20
2018-01-06T08:00:39.898Z,67.60
2018-01-06T08:03:07.445Z,68.10
2018-01-06T08:05:34.961Z,67.30
2018-01-06T08:08:02.506Z,68.10
2018-01-06T08:10:30.085Z,68.10
2018-01-06T08:12:57.642Z,68.20
2018-01-06T08:15:25.206Z,68.60
2018-01-06T08:17:52.761Z,67.50
2018-01-06T08:20:21.040Z,67.20
2018-01-06T08:22:48.623Z,67.20
2018-01-06T08:25:16.142Z,67.90
2018-01-06T08:27:43.694Z,67.90
2018-01-06T08:30:11.208Z,68.40
2018-01-06T08:32:38.760Z,68.60
2018-01-06T08:35:06.322Z,68.50
2018-01-06T08:37:33.852Z,68.00
2018-01-06T08:40:01.481Z,67.90
2018-01-06T08:42:28.966Z,67.60
2018-01-06T08:44:56.506Z,67.60
2018-01-06T08:47:24.097Z,68.00
2018-01-06T08:49:51.617Z,67.80
2018-01-06T08:52:19.131Z,67.40
2018-01-06T08:54:46.688Z,67.20
2018-01-06T08:57:14.232Z,67.10
2018-01-06T08:59:41.800Z,66.90
2018-01-06T09:02:09.330Z,66.90
2018-01-06T09:04:36.848Z,66.90
2018-01-06T09:07:04.413Z,67.30
2018-01-06T09:09:31.973Z,67.20
2018-01-06T09:11:59.517Z,66.50
2018-01-06T09:14:27.044Z,66.20
2018-01-06T09:16:55.358Z,66.10
2018-01-06T09:19:22.880Z,66.10
2018-01-06T09:21:51.204Z,66.30
2018-01-06T09:24:18.729Z,66.30
2018-01-06T09:26:46.342Z,66.30
2018-01-06T09:29:13.864Z,66.20
2018-01-06T09:31:41.386Z,66.20
2018-01-06T09:34:09.705Z,66.60
2018-01-06T09:36:37.233Z,66.50
2018-01-06T09:39:04.794Z,66.80
2018-01-06T09:41:32.316Z,66.80
2018-01-06T09:43:59.897Z,66.80
2018-01-06T09:46:28.225Z,67.90
2018-01-06T09:48:55.762Z,67.00
2018-01-06T09:51:23.331Z,67.10
2018-01-06T09:53:50.895Z,67.10
2018-01-06T09:56:18.472Z,66.90
2018-01-06T09:58:46.021Z,67.00
2018-01-06T10:01:13.605Z,67.00
2018-01-06T10:03:41.143Z,66.80
2018-01-06T10:06:08.693Z,66.90
2018-01-06T10:08:36.229Z,66.90
2018-01-06T10:11:03.821Z,66.80
2018-01-06T10:13:31.341Z,66.80
2018-01-06T10:15:58.910Z,66.60
2018-01-06T10:18:26.441Z,66.40
2018-01-06T10:20:54.007Z,66.60
2018-01-06T10:23:21.583Z,66.80
2018-01-06T10:25:49.115Z,66.70
2018-01-06T10:28:16.715Z,66.30
2018-01-06T10:30:44.233Z,66.00
2018-01-06T10:33:11.801Z,65.90
2018-01-06T10:35:39.322Z,66.00
2018-01-06T10:38:06.865Z,65.60
2018-01-06T10:40:34.418Z,65.90
2018-01-06T10:43:01.940Z,65.90
2018-01-06T10:45:30.308Z,66.00
2018-01-06T10:47:57.825Z,65.20
2018-01-06T10:50:25.370Z,65.00
2018-01-06T10:52:52.920Z,64.70
2018-01-06T10:55:20.480Z,64.60
2018-01-06T10:57:48.007Z,64.70
2018-01-06T11:00:16.288Z,63.70
2018-01-06T11:02:43.859Z,63.70
2018-01-06T11:05:11.435Z,64.40
2018-01-06T11:07:38.968Z,64.60
2018-01-06T11:10:06.492Z,64.60
2018-01-06T11:12:34.046Z,64.10
2018-01-06T11:15:02.192Z,62.80
2018-01-06T11:17:29.773Z,63.00
2018-01-06T11:19:57.305Z,62.80
2018-01-06T11:22:24.889Z,63.30
2018-01-06T11:24:52.456Z,63.60
2018-01-06T11:27:19.974Z,63.90
2018-01-06T11:29:47.539Z,63.90
2018-01-06T11:32:15.138Z,63.60
2018-01-06T11:34:42.666Z,63.90
2018-01-06T11:37:10.218Z,63.70
2018-01-06T11:39:37.815Z,63.80
2018-01-06T11:42:05.332Z,63.80
2018-01-06T11:44:33.659Z,64.10
2018-01-06T11:47:01.179Z,64.20
2018-01-06T11:49:28.728Z,64.10
2018-01-06T11:51:56.279Z,64.10
2018-01-06T11:54:24.568Z,63.40
2018-01-06T11:56:52.130Z,63.30
2018-01-06T11:59:20.461Z,63.00
2018-01-06T12:01:47.981Z,63.10
2018-01-06T12:04:15.533Z,63.30
2018-01-06T12:06:43.073Z,63.00
2018-01-06T12:09:10.629Z,63.00
2018-01-06T12:11:38.957Z,64.00
2018-01-06T12:14:06.492Z,63.90
2018-01-06T12:16:34.053Z,64.00
2018-01-06T12:19:01.568Z,64.10
2018-01-06T12:21:29.083Z,63.80
2018-01-06T12:23:56.654Z,63.70
2018-01-06T12:26:24.178Z,63.50
2018-01-06T12:28:51.728Z,63.40
2018-01-06T12:31:19.285Z,63.60
2018-01-06T12:33:47.564Z,63.30
2018-01-06T12:36:15.104Z,63.30
2018-01-06T12:38:42.683Z,63.10
2018-01-06T12:41:10.994Z,63.50
2018-01-06T12:43:38.596Z,63.50
2018-01-06T12:46:06.234Z,63.40
2018-01-06T12:48:33.759Z,63.50
2018-01-06T12:51:01.316Z,63.90
2018-01-06T12:53:28.877Z,64.10
2018-01-06T12:55:56.396Z,64.40
2018-01-06T12:58:23.977Z,64.70
2018-01-06T13:00:52.330Z,64.50
2018-01-06T13:03:19.858Z,64.50
2018-01-06T13:05:47.410Z,64.80
2018-01-06T13:08:14.925Z,63.70
2018-01-06T13:10:42.484Z,63.20
2018-01-06T13:13:10.048Z,63.20
2018-01-06T13:15:38.338Z,63.00
2018-01-06T13:18:06.696Z,63.30
2018-01-06T13:20:34.222Z,63.30
2018-01-06T13:23:01.794Z,63.30
2018-01-06T13:25:29.318Z,63.10
2018-01-06T13:27:56.845Z,63.00
2018-01-06T13:30:24.385Z,63.40
2018-01-06T13:32:51.915Z,63.30
2018-01-06T13:35:19.456Z,63.20
2018-01-06T13:37:47.066Z,62.80
2018-01-06T13:40:14.632Z,62.30
2018-01-06T13:42:42.208Z,62.80
2018-01-06T13:45:09.727Z,63.40
2018-01-06T13:47:37.601Z,63.90
2018-01-06T13:50:05.161Z,64.20
2018-01-06T13:52:32.689Z,64.00
2018-01-06T13:55:00.326Z,64.20
2018-01-06T13:57:27.853Z,63.20
2018-01-06T13:59:55.397Z,62.90
2018-01-06T14:02:22.958Z,62.80
2018-01-06T14:04:50.520Z,61.40
2018-01-06T14:07:18.084Z,61.20
2018-01-06T14:09:45.604Z,61.40
2018-01-06T14:12:13.157Z,61.50
2018-01-06T14:14:40.712Z,60.80
2018-01-06T14:17:08.279Z,61.30
2018-01-06T14:19:35.802Z,61.50
2018-01-06T14:22:03.336Z,61.70
2018-01-06T14:24:30.880Z,60.70
2018-01-06T14:26:58.404Z,60.50
2018-01-06T14:29:25.962Z,60.40
2018-01-06T14:31:53.580Z,60.70
2018-01-06T14:34:21.149Z,61.20
2018-01-06T14:36:48.674Z,61.30
2018-01-06T14:39:16.257Z,61.30
2018-01-06T14:41:43.802Z,61.10
2018-01-06T14:44:11.362Z,61.10
2018-01-06T14:46:38.881Z,61.20
2018-01-06T14:49:06.436Z,61.10
2018-01-06T14:51:33.990Z,61.40
2018-01-06T14:54:01.607Z,61.20
2018-01-06T14:56:29.169Z,61.50
2018-01-06T14:58:56.738Z,61.30
2018-01-06T15:01:24.294Z,61.00
2018-01-06T15:03:51.891Z,61.30
2018-01-06T15:09:01.464Z,61.40
2018-01-06T15:11:28.996Z,61.90
2018-01-06T15:13:56.557Z,62.00
2018-01-06T15:16:24.097Z,62.40
2018-01-06T15:18:51.662Z,62.30
2018-01-06T15:21:19.218Z,62.00
2018-01-06T15:23:46.780Z,62.30
2018-01-06T15:26:14.346Z,62.40
2018-01-06T15:28:41.907Z,62.30
2018-01-06T15:31:09.537Z,62.10
2018-01-06T15:33:37.095Z,62.50
2018-01-06T15:36:04.658Z,63.10
2018-01-06T15:38:32.174Z,63.10
2018-01-06T15:40:59.734Z,63.60
2018-01-06T15:43:27.280Z,64.30
2018-01-06T15:45:54.812Z,64.80
2018-01-06T15:48:22.389Z,65.00
2018-01-06T15:50:49.947Z,64.90
2018-01-06T15:53:17.509Z,65.20
2018-01-06T15:55:45.826Z,65.60
2018-01-06T15:58:13.428Z,65.60
2018-01-06T16:00:41.058Z,66.00
2018-01-06T16:03:08.573Z,65.40
2018-01-06T16:05:36.857Z,65.20
2018-01-06T16:08:04.409Z,65.10
2018-01-06T16:10:32.693Z,64.90
2018-01-06T16:13:00.292Z,64.90
2018-01-06T16:15:27.884Z,64.90
2018-01-06T16:17:55.422Z,64.90
2018-01-06T16:20:22.983Z,64.80
2018-01-06T16:22:50.529Z,64.70
2018-01-06T16:25:18.045Z,64.90
2018-01-06T16:27:45.644Z,65.40
2018-01-06T16:30:13.197Z,65.40
2018-01-06T16:32:40.730Z,65.60
2018-01-06T16:35:08.347Z,65.20
2018-01-06T16:37:35.941Z,65.90
2018-01-06T16:40:03.516Z,66.40
2018-01-06T16:42:31.809Z,66.80
2018-01-06T16:44:59.363Z,66.70
2018-01-06T16:47:26.927Z,66.40
2018-01-06T16:49:54.527Z,65.60
2018-01-06T16:52:22.113Z,66.20
2018-01-06T16:54:49.714Z,66.50
2018-01-06T16:57:17.274Z,66.30
2018-01-06T16:59:44.894Z,66.50
2018-01-06T17:02:12.426Z,66.50
2018-01-06T17:04:40.016Z,66.90
2018-01-06T17:07:07.544Z,66.30
2018-01-06T17:09:35.107Z,65.80
2018-01-06T17:12:02.717Z,65.70
2018-01-06T17:14:30.300Z,65.70
2018-01-06T17:16:57.897Z,65.80
2018-01-06T17:19:25.418Z,65.50
2018-01-06T17:21:52.987Z,65.40
2018-01-06T17:24:20.593Z,65.70
2018-01-06T17:26:48.215Z,65.50
2018-01-06T17:29:16.502Z,65.00
2018-01-06T17:31:44.027Z,65.00
2018-01-06T17:34:11.656Z,65.20
2018-01-06T17:36:39.198Z,64.90
2018-01-06T17:39:06.806Z,64.40
2018-01-06T17:41:34.346Z,64.50
2018-01-06T17:44:01.974Z,64.40
2018-01-06T17:46:29.554Z,64.80
2018-01-06T17:48:57.108Z,64.80
2018-01-06T17:51:24.682Z,64.90
2018-01-06T17:53:53.047Z,65.00
2018-01-06T17:56:20.690Z,65.00
2018-01-06T17:58:48.309Z,64.80
2018-01-06T18:01:15.922Z,64.40
2018-01-06T18:03:43.526Z,64.50
2018-01-06T18:06:11.084Z,64.20
2018-01-06T18:08:38.616Z,65.20
2018-01-06T18:11:06.229Z,64.50
2018-01-06T18:13:33.795Z,64.90
2018-01-06T18:16:01.404Z,64.90
2018-01-06T18:18:29.760Z,65.10
2018-01-06T18:20:57.387Z,65.00
2018-01-06T18:23:24.992Z,64.90
2018-01-06T18:25:52.572Z,64.50
2018-01-06T18:28:20.141Z,65.30
2018-01-06T18:30:47.755Z,64.50
2018-01-06T18:33:15.337Z,64.20
2018-01-06T18:35:42.950Z,64.40
2018-01-06T18:38:10.521Z,64.60
2018-01-06T18:40:38.083Z,65.70
2018-01-06T18:43:05.702Z,65.40
2018-01-06T18:45:33.302Z,65.70
2018-01-06T18:48:00.912Z,65.80
2018-01-06T18:50:28.451Z,66.80
2018-01-06T18:52:56.020Z,64.80
2018-01-06T18:55:23.579Z,64.70
2018-01-06T18:57:51.174Z,64.60
2018-01-06T19:00:18.736Z,65.50
2018-01-06T19:02:46.360Z,64.20
2018-01-06T19:05:13.984Z,65.20
2018-01-06T19:07:41.564Z,66.20
2018-01-06T19:10:09.132Z,65.70
2018-01-06T19:12:36.695Z,65.30
2018-01-06T19:15:04.306Z,64.80
2018-01-06T19:17:31.909Z,65.00
2018-01-06T19:19:59.470Z,65.20
2018-01-06T19:22:27.041Z,64.50
2018-01-06T19:24:54.698Z,65.10
2018-01-06T19:27:22.222Z,65.00
2018-01-06T19:29:50.030Z,64.70
2018-01-06T19:32:17.634Z,64.70
2018-01-06T19:34:45.238Z,64.80
2018-01-06T19:37:12.857Z,64.60
2018-01-06T19:39:40.468Z,64.60
2018-01-06T19:42:08.045Z,65.50
2018-01-06T19:44:35.601Z,65.40
2018-01-06T19:47:03.217Z,65.30
2018-01-06T19:49:30.771Z,65.00
2018-01-06T19:51:58.373Z,65.20
2018-01-06T19:54:26.000Z,65.30
2018-01-06T19:56:53.604Z,64.90
2018-01-06T19:59:21.979Z,64.40
2018-01-06T20:01:49.565Z,64.30
2018-01-06T20:04:17.150Z,64.60
2018-01-06T20:06:44.761Z,65.10
2018-01-06T20:09:12.367Z,64.60
2018-01-06T20:11:40.744Z,64.90
2018-01-06T20:14:08.327Z,64.70
2018-01-06T20:16:35.940Z,64.00
2018-01-06T20:19:03.580Z,64.20
2018-01-06T20:21:31.205Z,63.90
2018-01-06T20:23:58.816Z,63.50
2018-01-06T20:26:26.429Z,63.90
2018-01-06T20:28:54.019Z,63.60
2018-01-06T20:31:21.630Z,63.90
2018-01-06T20:33:49.259Z,64.20
2018-01-06T20:36:17.630Z,64.10
2018-01-06T20:38:45.211Z,64.10
2018-01-06T20:41:12.829Z,63.50
2018-01-06T20:43:40.417Z,64.50
2018-01-06T20:46:08.042Z,64.30
2018-01-06T20:48:35.629Z,64.40
2018-01-06T20:51:03.213Z,64.40
2018-01-06T20:53:31.594Z,64.80
2018-01-06T20:55:59.209Z,64.80
2018-01-06T20:58:26.802Z,65.00
2018-01-06T21:00:55.225Z,64.50
2018-01-06T21:03:22.814Z,64.40
2018-01-06T21:05:50.461Z,64.40
2018-01-06T21:08:18.079Z,64.60
2018-01-06T21:10:45.659Z,64.60
2018-01-06T21:13:13.273Z,64.70
2018-01-06T21:15:40.860Z,64.60
2018-01-06T21:18:09.226Z,64.50
2018-01-06T21:20:37.625Z,64.40
2018-01-06T21:23:05.192Z,64.40
2018-01-06T21:25:32.806Z,64.00
2018-01-06T21:28:00.385Z,63.80
2018-01-06T21:30:28.014Z,63.30
2018-01-06T21:32:55.592Z,64.20
2018-01-06T21:35:23.202Z,64.30
2018-01-06T21:37:50.813Z,64.40
2018-01-06T21:40:18.395Z,64.60
2018-01-06T21:42:46.076Z,64.00
2018-01-06T21:45:13.654Z,64.60
2018-01-06T21:47:41.237Z,64.60
2018-01-06T21:50:08.866Z,63.80
2018-01-06T21:52:36.457Z,63.20
2018-01-06T21:55:04.041Z,63.80
2018-01-06T21:57:31.666Z,63.90
2018-01-06T21:59:59.260Z,64.20
2018-01-06T22:02:26.893Z,64.50
2018-01-06T22:04:54.486Z,63.70
2018-01-06T22:07:22.112Z,63.50
2018-01-06T22:09:49.723Z,63.30
2018-01-06T22:12:17.333Z,63.20
2018-01-06T22:14:44.927Z,63.10
2018-01-06T22:17:12.530Z,63.20
2018-01-06T22:19:40.129Z,63.30
2018-01-06T22:22:07.800Z,62.80
2018-01-06T22:24:35.372Z,62.60
2018-01-06T22:27:02.983Z,62.20
2018-01-06T22:29:30.559Z,62.40
2018-01-06T22:31:58.165Z,62.20
2018-01-06T22:34:26.500Z,62.70
2018-01-06T22:36:54.099Z,62.20
2018-01-06T22:39:21.705Z,62.50
2018-01-06T22:41:49.282Z,62.60
2018-01-06T22:44:16.889Z,62.50
2018-01-06T22:46:44.499Z,62.60
2018-01-06T22:49:12.073Z,62.40
2018-01-06T22:51:39.688Z,62.50
2018-01-06T22:54:07.296Z,62.70
2018-01-06T22:56:34.862Z,62.60
2018-01-06T22:59:02.476Z,62.50
2018-01-06T23:01:30.061Z,62.70
2018-01-06T23:03:57.660Z,63.10
2018-01-06T23:06:25.301Z,62.70
2018-01-06T23:08:52.881Z,62.20
2018-01-06T23:11:20.489Z,62.30
2018-01-06T23:13:48.067Z,62.10
2018-01-06T23:16:15.679Z,62.20
2018-01-06T23:18:43.248Z,62.20
2018-01-06T23:21:11.623Z,62.40
2018-01-06T23:23:40.012Z,62.80
2018-01-06T23:26:07.630Z,62.70
2018-01-06T23:28:35.273Z,62.50
2018-01-06T23:31:02.840Z,63.20
2018-01-06T23:33:31.213Z,62.90
2018-01-06T23:35:58.789Z,62.70
2018-01-06T23:38:26.401Z,63.00
2018-01-06T23:40:53.971Z,63.10
2018-01-06T23:43:21.576Z,62.90
2018-01-06T23:45:49.208Z,62.90
2018-01-06T23:48:17.685Z,63.10
2018-01-06T23:50:45.277Z,62.90
2018-01-06T23:53:12.885Z,63.20
2018-01-06T23:55:40.494Z,63.30
2018-01-06T23:58:08.060Z,63.90
